Time;durP1;ratioP1;P1;durP2;ratioP2;P2;SDS_P1;SDS_P2;PMS_P1;PMS_P2;Temp;Humidity;BMP_temperature;BMP_pressure;BME280_temperature;BME280_humidity;BME280_pressure;Samples;Min_cycle;Max_cycle;Signal;HPM_P1;HPM_P2
2022/03/23 00:02:24;;;;;;;;;;;;;;;6.87;100.00;103124.09;4988965;28;19966;-70
2022/03/23 00:04:49;;;;;;;;;;;;;;;6.88;100.00;103128.50;4987093;28;19918;-71
2022/03/23 00:07:14;;;;;;;;;;;;;;;6.80;100.00;103130.19;4987386;28;19917;-71
2022/03/23 00:09:40;;;;;;;;;;;;;;;6.76;100.00;103123.97;4987655;28;20005;-70
2022/03/23 00:12:06;;;;;;;;;;;;;;;6.76;100.00;103125.75;4991542;28;20001;-71
2022/03/23 00:14:31;;;;;;;;;;;;;;;6.76;100.00;103128.41;4983544;28;19957;-69
2022/03/23 00:16:56;;;;;;;;;;;;;;;6.70;100.00;103128.31;4986725;28;20405;-70
2022/03/23 00:19:22;;;;;;;;;;;;;;;6.66;100.00;103121.25;4990769;28;20283;-70
2022/03/23 00:21:47;;;;;;;;;;;;;;;6.64;100.00;103122.97;4994770;28;19924;-71
2022/03/23 00:24:12;;;;;;;;;;;;;;;6.63;100.00;103121.22;4996787;28;20284;-71
2022/03/23 00:26:37;;;;;;;;;;;;;;;6.60;100.00;103116.81;4995301;28;19956;-70
2022/03/23 00:29:03;;;;;;;;;;;;;;;6.50;100.00;103116.69;4995246;28;19979;-70
2022/03/23 00:31:29;;;;;;;;;;;;;;;6.51;100.00;103118.47;4991350;28;19922;-71
2022/03/23 00:33:55;;;;;;;;;;;;;;;6.51;100.00;103121.13;4982253;28;19918;-70
2022/03/23 00:36:20;;;;;;;;;;;;;;;6.49;100.00;103122.84;4985903;28;20004;-71
2022/03/23 00:38:46;;;;;;;;;;;;;;;6.47;100.00;103121.94;4977397;28;19965;-70
2022/03/23 00:41:12;;;;;;;;;;;;;;;6.42;100.00;103121.00;4984345;28;19918;-70
2022/03/23 00:43:37;;;;;;;;;;;;;;;6.38;100.00;103132.41;4994227;28;19924;-70
2022/03/23 00:46:02;;;;;;;;;;;;;;;6.37;100.00;103125.38;4984625;28;20455;-70
2022/03/23 00:48:28;;;;;;;;;;;;;;;6.35;100.00;103129.72;4998485;28;19954;-70
2022/03/23 00:50:53;;;;;;;;;;;;;;;6.29;100.00;103134.94;4991740;28;19922;-69
2022/03/23 00:53:19;;;;;;;;;;;;;;;6.26;100.00;103134.91;4988505;28;19921;-70
2022/03/23 00:55:44;;;;;;;;;;;;;;;6.23;100.00;103136.66;4994155;28;19922;-70
2022/03/23 00:58:10;;;;;;;;;;;;;;;6.14;100.00;103131.28;4989078;28;19984;-71
2022/03/23 01:00:35;;;;;;;;;;;;;;;6.08;100.00;103136.44;4986173;28;20406;-70
2022/03/23 01:03:00;;;;;;;;;;;;;;;6.11;100.00;103135.63;4987186;28;19918;-70
2022/03/23 01:05:26;;;;;;;;;;;;;;;6.10;100.00;103133.81;4986983;28;19918;-70
2022/03/23 01:07:52;;;;;;;;;;;;;;;6.11;100.00;103141.75;4993778;28;19918;-70
2022/03/23 01:10:17;;;;;;;;;;;;;;;6.09;100.00;103138.25;4977463;28;20391;-70
2022/03/23 01:12:44;;;;;;;;;;;;;;;6.12;100.00;103133.00;4985395;28;19918;-70
2022/03/23 01:15:10;;;;;;;;;;;;;;;6.10;100.00;103145.28;4983531;28;19922;-70
2022/03/23 01:17:35;;;;;;;;;;;;;;;6.03;100.00;103132.91;4988500;28;19925;-70
2022/03/23 01:20:03;;;;;;;;;;;;;;;6.02;100.00;103135.47;4987014;28;20000;-71
2022/03/23 01:22:28;;;;;;;;;;;;;;;5.99;100.00;103138.09;4986555;28;20405;-70
2022/03/23 01:24:53;;;;;;;;;;;;;;;5.93;100.00;103136.28;4982300;28;19954;-70
2022/03/23 01:27:18;;;;;;;;;;;;;;;5.89;100.00;103130.94;4992606;28;19944;-71
2022/03/23 01:29:46;;;;;;;;;;;;;;;5.86;100.00;103129.13;4995250;28;19941;-70
2022/03/23 01:32:12;;;;;;;;;;;;;;;5.83;100.00;103134.38;4989490;28;20391;-71
2022/03/23 01:34:37;;;;;;;;;;;;;;;5.79;100.00;103139.56;4986077;28;19925;-69
2022/03/23 01:37:03;;;;;;;;;;;;;;;5.78;100.00;103135.16;4996766;28;19941;-70
2022/03/23 01:39:28;;;;;;;;;;;;;;;5.69;100.00;103128.00;4988454;28;19929;-71
2022/03/23 01:41:53;;;;;;;;;;;;;;;5.66;100.00;103135.88;4980240;28;20363;-71
2022/03/23 01:44:19;;;;;;;;;;;;;;;5.56;100.00;103131.31;4981871;28;20029;-71
2022/03/23 01:52:23;;;;;;;;;;;;;;;5.44;100.00;103135.53;5939389;23;20182;-72
2022/03/23 01:57:58;;;;;;;;;;;;;;;5.49;100.00;103134.75;4956039;29;19965;-72
2022/03/23 02:00:57;;;;;;;;;;;;;;;5.47;100.00;103133.84;4960580;28;19922;-72
2022/03/23 02:03:23;;;;;;;;;;;;;;;5.44;100.00;103139.06;4955486;28;19922;-72
2022/03/23 02:05:48;;;;;;;;;;;;;;;5.46;100.00;103137.34;4975079;28;19918;-72
2022/03/23 02:11:16;;;;;;;;;;;;;;;5.35;100.00;103138.94;4975041;28;19984;-72
2022/03/23 02:13:42;;;;;;;;;;;;;;;5.33;100.00;103135.38;4974913;28;19918;-72
2022/03/23 02:16:08;;;;;;;;;;;;;;;5.31;100.00;103134.47;4974983;28;19977;-72
2022/03/23 02:18:34;;;;;;;;;;;;;;;5.30;100.00;103130.06;4973790;28;20394;-72
2022/03/23 02:21:00;;;;;;;;;;;;;;;5.28;100.00;103133.56;4974788;28;20012;-72
2022/03/23 02:23:25;;;;;;;;;;;;;;;5.25;100.00;103130.84;4973494;28;19958;-73
2022/03/23 02:25:52;;;;;;;;;;;;;;;5.21;100.00;103135.19;4973565;28;19961;-72
2022/03/23 02:28:18;;;;;;;;;;;;;;;5.20;100.00;103136.03;4974738;28;19918;-72
2022/03/23 02:30:43;;;;;;;;;;;;;;;5.18;100.00;103135.16;4975191;28;19918;-72
2022/03/23 02:33:09;;;;;;;;;;;;;;;5.17;100.00;103136.00;4974782;28;19925;-73
2022/03/23 02:35:35;;;;;;;;;;;;;;;5.17;100.00;103137.78;4969404;28;19918;-72
2022/03/23 02:38:00;;;;;;;;;;;;;;;5.14;100.00;103137.72;4981153;28;19925;-72
2022/03/23 02:40:25;;;;;;;;;;;;;;;5.05;100.00;103138.44;4981222;28;20291;-73
2022/03/23 02:42:50;;;;;;;;;;;;;;;5.01;100.00;103130.47;4962545;28;20384;-72
2022/03/23 02:45:16;;;;;;;;;;;;;;;4.97;100.00;103131.28;4961722;29;19981;-73
2022/03/23 02:47:44;;;;;;;;;;;;;;;4.92;100.00;103131.19;4961826;28;20013;-73
2022/03/23 02:50:09;;;;;;;;;;;;;;;4.93;100.00;103142.63;4964023;28;19918;-73
2022/03/23 02:52:34;;;;;;;;;;;;;;;4.92;100.00;103136.47;4979563;28;19922;-73
2022/03/23 03:03:34;;;;;;;;;;;;;;;4.65;100.00;103136.88;5000461;28;20386;-73
2022/03/23 03:09:02;;;;;;;;;;;;;;;4.64;100.00;103134.22;5000723;28;19972;-73
2022/03/23 03:11:27;;;;;;;;;;;;;;;4.62;100.00;103136.81;5000356;28;19922;-72
2022/03/23 03:13:53;;;;;;;;;;;;;;;4.55;100.00;103147.22;5000246;28;19917;-72
2022/03/23 03:16:18;;;;;;;;;;;;;;;4.49;100.00;103149.75;5000202;28;20267;-73
2022/03/23 03:18:44;;;;;;;;;;;;;;;4.47;100.00;103152.34;5000280;28;19918;-72
2022/03/23 03:21:10;;;;;;;;;;;;;;;4.42;100.00;103142.56;5000257;28;19922;-72
2022/03/23 03:23:39;;;;;;;;;;;;;;;4.42;100.00;103147.84;5000225;28;19918;-72
2022/03/23 03:26:06;;;;;;;;;;;;;;;4.39;100.00;103153.94;4998856;28;20037;-72
2022/03/23 03:28:32;;;;;;;;;;;;;;;4.39;100.00;103153.94;5000392;28;19918;-72
2022/03/23 03:30:57;;;;;;;;;;;;;;;4.38;100.00;103146.03;4998949;28;20008;-72
2022/03/23 03:33:23;;;;;;;;;;;;;;;4.39;100.00;103153.03;5000145;28;20379;-72
2022/03/23 03:35:48;;;;;;;;;;;;;;;4.36;100.00;103155.63;4999983;28;19917;-72
2022/03/23 03:38:14;;;;;;;;;;;;;;;4.30;100.00;103151.09;4998576;28;19919;-72
2022/03/23 03:40:59;;;;;;;;;;;;;;;4.20;100.00;103151.81;4998689;28;19944;-72
2022/03/23 03:43:25;;;;;;;;;;;;;;;4.20;100.00;103148.28;5000555;28;19918;-72
2022/03/23 03:45:51;;;;;;;;;;;;;;;4.18;100.00;103152.59;4999895;28;19918;-72
2022/03/23 03:48:17;;;;;;;;;;;;;;;4.17;100.00;103156.09;4998418;28;19974;-72
2022/03/23 03:50:42;;;;;;;;;;;;;;;4.14;100.00;103161.31;4995411;28;20452;-72
2022/03/23 03:53:08;;;;;;;;;;;;;;;4.12;100.00;103161.28;4996546;28;19930;-72
2022/03/23 03:55:34;;;;;;;;;;;;;;;4.08;100.00;103164.69;4996712;28;19918;-72
2022/03/23 03:57:59;;;;;;;;;;;;;;;4.05;100.00;103166.38;4996796;28;19918;-72
2022/03/23 04:00:26;;;;;;;;;;;;;;;4.04;100.00;103168.13;4996055;28;20418;-72
2022/03/23 04:02:51;;;;;;;;;;;;;;;4.02;100.00;103161.03;4995343;28;20441;-72
2022/03/23 04:05:16;;;;;;;;;;;;;;;3.99;100.00;103167.13;4996540;28;19918;-72
2022/03/23 04:07:42;;;;;;;;;;;;;;;4.01;100.00;103164.53;4996510;28;20363;-72
2022/03/23 04:10:07;;;;;;;;;;;;;;;4.00;100.00;103174.16;4996454;28;20375;-72
2022/03/23 04:12:32;;;;;;;;;;;;;;;3.96;100.00;103166.16;4996287;28;19917;-72
2022/03/23 04:14:58;;;;;;;;;;;;;;;3.83;100.00;103175.53;4996445;28;19924;-72
2022/03/23 04:17:23;;;;;;;;;;;;;;;3.75;100.00;103181.50;4996251;28;19957;-72
2022/03/23 04:19:48;;;;;;;;;;;;;;;3.71;100.00;103169.13;4996340;28;19918;-72
2022/03/23 04:22:13;;;;;;;;;;;;;;;3.75;100.00;103174.47;4996580;28;20605;-72
2022/03/23 04:24:39;;;;;;;;;;;;;;;3.78;100.00;103171.03;4996118;28;20310;-72
2022/03/23 04:27:05;;;;;;;;;;;;;;;3.76;100.00;103178.00;4995882;28;20398;-72
2022/03/23 04:29:30;;;;;;;;;;;;;;;3.69;100.00;103178.75;4995879;28;19928;-72
2022/03/23 04:31:55;;;;;;;;;;;;;;;3.73;100.00;103183.19;4996361;28;19921;-72
2022/03/23 04:34:21;;;;;;;;;;;;;;;3.76;100.00;103188.50;4996065;28;20365;-73
2022/03/23 04:36:46;;;;;;;;;;;;;;;3.75;100.00;103182.34;4995972;28;19972;-72
2022/03/23 04:39:11;;;;;;;;;;;;;;;3.73;100.00;103188.44;4995911;28;19919;-72
2022/03/23 04:41:36;;;;;;;;;;;;;;;3.69;100.00;103184.00;4995909;28;19922;-72
2022/03/23 04:44:02;;;;;;;;;;;;;;;3.67;100.00;103191.81;4995857;28;19997;-72
2022/03/23 04:46:27;;;;;;;;;;;;;;;3.65;100.00;103185.66;4995785;28;19988;-72
2022/03/23 04:48:52;;;;;;;;;;;;;;;3.65;100.00;103183.03;4990677;28;20314;-72
2022/03/23 04:51:24;;;;;;;;;;;;;;;3.64;100.00;103197.00;4993738;28;19922;-72
2022/03/23 04:53:49;;;;;;;;;;;;;;;3.66;100.00;103190.03;4995737;28;19980;-72
2022/03/23 04:56:14;;;;;;;;;;;;;;;3.68;100.00;103200.59;4995641;28;19922;-72
2022/03/23 04:58:42;;;;;;;;;;;;;;;3.57;100.00;103200.34;4994357;28;19918;-72
2022/03/23 05:01:08;;;;;;;;;;;;;;;3.56;100.00;103200.31;4995471;28;20294;-72
2022/03/23 05:03:34;;;;;;;;;;;;;;;3.50;100.00;103208.94;4996204;28;19917;-72
2022/03/23 05:05:59;;;;;;;;;;;;;;;3.46;100.00;103203.56;4994436;28;19918;-72
2022/03/23 05:08:24;;;;;;;;;;;;;;;3.46;100.00;103208.81;4995550;28;19929;-72
2022/03/23 05:10:50;;;;;;;;;;;;;;;3.41;100.00;103208.72;4995911;28;19924;-72
2022/03/23 05:13:15;;;;;;;;;;;;;;;3.33;100.00;103209.38;4995302;28;20375;-72
2022/03/23 05:15:40;;;;;;;;;;;;;;;3.30;100.00;103219.81;4995266;28;20097;-72
2022/03/23 05:18:05;;;;;;;;;;;;;;;3.29;100.00;103215.41;4995300;28;20288;-72
2022/03/23 05:20:30;;;;;;;;;;;;;;;3.29;100.00;103204.91;4994049;28;19918;-72
2022/03/23 05:22:56;;;;;;;;;;;;;;;3.26;100.00;103213.59;4995639;28;20395;-71
2022/03/23 05:28:26;;;;;;;;;;;;;;;3.29;100.00;103218.03;4995001;28;19924;-71
2022/03/23 05:33:53;;;;;;;;;;;;;;;3.28;100.00;103221.53;4995109;28;19972;-73
2022/03/23 05:36:19;;;;;;;;;;;;;;;3.27;100.00;103224.97;4995188;28;19922;-71
2022/03/23 05:38:44;;;;;;;;;;;;;;;3.29;100.00;103224.19;4993641;28;20008;-71
2022/03/23 05:41:09;;;;;;;;;;;;;;;3.27;100.00;103217.09;4995163;28;19972;-72
2022/03/23 05:43:35;;;;;;;;;;;;;;;3.32;100.00;103226.00;4995362;28;19918;-71
2022/03/23 05:46:00;;;;;;;;;;;;;;;3.29;100.00;103226.81;4994799;28;19918;-71
2022/03/23 05:48:25;;;;;;;;;;;;;;;3.27;100.00;103228.50;4993336;28;19929;-72
2022/03/23 05:50:50;;;;;;;;;;;;;;;3.26;100.00;103223.22;4994704;28;19950;-71
2022/03/23 05:53:16;;;;;;;;;;;;;;;3.27;100.00;103225.88;4993388;28;19922;-72
2022/03/23 05:55:41;;;;;;;;;;;;;;;3.28;100.00;103218.91;4993756;28;19925;-73
2022/03/23 05:58:06;;;;;;;;;;;;;;;3.34;100.00;103227.78;4994648;28;19921;-71
2022/03/23 06:00:31;;;;;;;;;;;;;;;3.41;100.00;103228.84;4994588;28;19917;-72
2022/03/23 06:02:56;;;;;;;;;;;;;;;3.45;100.00;103235.94;4994690;28;19918;-71
2022/03/23 06:05:22;;;;;;;;;;;;;;;3.48;100.00;103236.94;4994757;28;19918;-73
2022/03/23 06:07:47;;;;;;;;;;;;;;;3.48;100.00;103229.03;4993206;28;20408;-73
2022/03/23 06:10:12;;;;;;;;;;;;;;;3.52;100.00;103235.22;4993646;28;19922;-70
2022/03/23 06:12:38;;;;;;;;;;;;;;;3.55;100.00;103243.19;4986000;28;20359;-71
2022/03/23 06:15:05;;;;;;;;;;;;;;;3.58;100.00;103238.03;4994391;28;19928;-72
2022/03/23 06:17:30;;;;;;;;;;;;;;;3.66;100.00;103246.97;4993189;28;19918;-73
2022/03/23 06:19:56;;;;;;;;;;;;;;;3.73;100.00;103246.25;4994299;28;19925;-72
2022/03/23 06:22:21;;;;;;;;;;;;;;;3.80;100.00;103248.19;4994460;28;19918;-71
2022/03/23 06:24:46;;;;;;;;;;;;;;;3.87;100.00;103244.84;4994356;28;20354;-73
2022/03/23 06:27:11;;;;;;;;;;;;;;;4.01;100.00;103252.19;4994299;28;19972;-70
2022/03/23 06:29:37;;;;;;;;;;;;;;;4.08;100.00;103263.75;4994190;28;19977;-71
2022/03/23 06:32:02;;;;;;;;;;;;;;;4.10;100.00;103247.13;4975955;28;20403;-70
2022/03/23 06:34:28;;;;;;;;;;;;;;;4.15;100.00;103253.38;4975257;28;20295;-70
2022/03/23 06:36:53;;;;;;;;;;;;;;;4.25;100.00;103250.09;4974918;28;19918;-70
2022/03/23 06:39:18;;;;;;;;;;;;;;;4.33;100.00;103261.66;4978843;28;20395;-70
2022/03/23 06:41:43;;;;;;;;;;;;;;;4.40;100.00;103265.31;4979944;28;20299;-71
2022/03/23 06:44:08;;;;;;;;;;;;;;;4.55;100.00;103258.59;4988142;28;20512;-70
2022/03/23 06:46:34;;;;;;;;;;;;;;;4.97;100.00;103266.47;4985465;28;20383;-71
2022/03/23 06:48:59;;;;;;;;;;;;;;;5.19;100.00;103258.09;4994362;28;20453;-70
2022/03/23 06:51:25;;;;;;;;;;;;;;;5.20;100.00;103262.50;4988770;28;19922;-71
2022/03/23 06:53:50;;;;;;;;;;;;;;;5.31;100.00;103250.38;4988041;28;19988;-76
2022/03/23 06:56:16;;;;;;;;;;;;;;;5.24;100.00;103234.47;4976447;28;19973;-75
2022/03/23 06:58:41;;;;;;;;;;;;;;;5.23;100.00;103232.69;4976216;28;19918;-71
2022/03/23 07:01:06;;;;;;;;;;;;;;;5.27;100.00;103240.66;4981694;28;19993;-71
2022/03/23 07:03:32;;;;;;;;;;;;;;;5.32;100.00;103230.22;4997802;28;20294;-70
2022/03/23 07:05:57;;;;;;;;;;;;;;;5.39;100.00;103227.69;4983039;28;19917;-71
2022/03/23 07:11:20;;;;;;;;;;;;;;;5.46;100.00;103221.66;4961372;28;19922;-70
2022/03/23 07:13:45;;;;;;;;;;;;;;;5.50;100.00;103215.56;4987992;28;19925;-71
2022/03/23 07:16:10;;;;;;;;;;;;;;;5.58;100.00;103213.94;4992467;28;20300;-71
2022/03/23 07:18:36;;;;;;;;;;;;;;;5.72;100.00;103212.41;4992511;28;19954;-71
2022/03/23 07:21:04;;;;;;;;;;;;;;;5.82;100.00;103206.44;4992827;28;19918;-71
2022/03/23 07:23:29;;;;;;;;;;;;;;;5.94;100.00;103203.97;4996406;28;20028;-71
2022/03/23 07:25:54;;;;;;;;;;;;;;;6.14;100.00;103207.78;4984421;28;19958;-71
2022/03/23 07:28:19;;;;;;;;;;;;;;;6.30;100.00;103200.03;4985190;28;19929;-71
2022/03/23 07:30:45;;;;;;;;;;;;;;;6.43;100.00;103192.28;4994681;28;19929;-71
2022/03/23 07:33:10;;;;;;;;;;;;;;;6.52;100.00;103191.50;4994640;28;20375;-71
2022/03/23 07:35:36;;;;;;;;;;;;;;;6.72;100.00;103182.94;4991320;28;19924;-71
2022/03/23 07:38:01;;;;;;;;;;;;;;;6.99;100.00;103182.31;4982259;28;19917;-71
2022/03/23 07:40:26;;;;;;;;;;;;;;;7.05;100.00;103180.63;4983800;28;19930;-72
2022/03/23 07:42:51;;;;;;;;;;;;;;;7.08;100.00;103171.81;4986929;28;19922;-70
2022/03/23 07:48:08;;;;;;;;;;;;;;;7.39;100.00;103174.72;4978405;28;19918;-71
2022/03/23 07:50:34;;;;;;;;;;;;;;;7.56;100.00;103172.22;4994846;28;19918;-71
2022/03/23 07:52:59;;;;;;;;;;;;;;;7.47;100.00;103167.72;4991841;28;20002;-70
2022/03/23 07:55:25;;;;;;;;;;;;;;;7.64;100.00;103171.38;4996259;28;19969;-71
2022/03/23 07:57:51;;;;;;;;;;;;;;;7.68;100.00;103173.16;4979106;28;19945;-71
2022/03/23 08:00:16;;;;;;;;;;;;;;;7.75;100.00;103167.03;4976978;28;20435;-71
2022/03/23 08:02:41;;;;;;;;;;;;;;;7.78;100.00;103168.81;4976958;28;19922;-70
2022/03/23 08:05:08;;;;;;;;;;;;;;;7.76;100.00;103167.91;4990753;28;19988;-71
2022/03/23 08:07:33;;;;;;;;;;;;;;;7.87;100.00;103166.22;4995389;28;19917;-71
2022/03/23 08:09:58;;;;;;;;;;;;;;;8.05;100.00;103171.63;4996578;28;19918;-72
2022/03/23 08:12:23;;;;;;;;;;;;;;;8.04;100.00;103169.81;4996379;28;19917;-70
2022/03/23 08:14:49;;;;;;;;;;;;;;;8.23;100.00;103168.16;4996229;28;19922;-71
2022/03/23 08:17:14;;;;;;;;;;;;;;;8.25;100.00;103167.31;4995978;28;19917;-72
2022/03/23 08:19:39;;;;;;;;;;;;;;;8.33;100.00;103167.34;4995911;28;19921;-71
2022/03/23 08:22:04;;;;;;;;;;;;;;;8.55;100.00;103158.56;4994778;28;19918;-71
2022/03/23 08:24:30;;;;;;;;;;;;;;;8.65;100.00;103169.19;4996075;28;19918;-73
2022/03/23 08:26:55;;;;;;;;;;;;;;;8.72;100.00;103157.72;4995897;28;20011;-75
2022/03/23 08:29:20;;;;;;;;;;;;;;;8.95;100.00;103165.72;4994567;28;19933;-71
2022/03/23 08:31:46;;;;;;;;;;;;;;;8.96;100.00;103162.19;4995920;28;19918;-71
2022/03/23 08:34:11;;;;;;;;;;;;;;;9.00;100.00;103159.53;4992827;28;19932;-72
2022/03/23 08:36:37;;;;;;;;;;;;;;;9.04;100.00;103168.38;4983783;28;19918;-71
2022/03/23 08:39:03;;;;;;;;;;;;;;;9.17;100.00;103157.75;4976568;28;19918;-72
2022/03/23 08:41:28;;;;;;;;;;;;;;;9.26;100.00;103160.41;4975991;28;19922;-71
2022/03/23 08:43:53;;;;;;;;;;;;;;;9.45;100.00;103163.03;4976134;28;20291;-72
2022/03/23 08:46:18;;;;;;;;;;;;;;;9.48;100.00;103163.03;4976390;28;19918;-72
2022/03/23 08:48:44;;;;;;;;;;;;;;;9.56;100.00;103166.56;4983481;28;20013;-72
2022/03/23 08:51:09;;;;;;;;;;;;;;;9.66;100.00;103169.19;4985841;28;20121;-72
2022/03/23 08:53:34;;;;;;;;;;;;;;;9.82;100.00;103170.03;4990661;28;20017;-71
2022/03/23 08:55:59;;;;;;;;;;;;;;;9.96;100.00;103169.13;4995214;28;19934;-72
2022/03/23 08:58:25;;;;;;;;;;;;;;;10.03;100.00;103165.56;4994979;28;19922;-72
2022/03/23 09:00:50;;;;;;;;;;;;;;;10.15;100.00;103168.19;4995092;28;20041;-71
2022/03/23 09:03:15;;;;;;;;;;;;;;;10.21;100.00;103172.63;4994947;28;20359;-72
2022/03/23 09:05:41;;;;;;;;;;;;;;;10.47;100.00;103171.59;4995474;28;20371;-71
2022/03/23 09:08:07;;;;;;;;;;;;;;;11.05;100.00;103174.75;4995113;28;20291;-72
2022/03/23 09:10:34;;;;;;;;;;;;;;;11.70;100.00;103175.09;4992925;28;19918;-72
2022/03/23 09:12:59;;;;;;;;;;;;;;;12.28;100.00;103176.19;4976208;28;19918;-73
2022/03/23 09:15:25;;;;;;;;;;;;;;;12.70;100.00;103177.38;4975880;28;20085;-72
2022/03/23 09:17:50;;;;;;;;;;;;;;;13.07;100.00;103167.94;4975689;28;20367;-72
2022/03/23 09:20:16;;;;;;;;;;;;;;;13.41;100.00;103174.47;4983978;28;19973;-72
2022/03/23 09:22:41;;;;;;;;;;;;;;;13.66;100.00;103177.59;4974286;28;19918;-71
2022/03/23 09:25:08;;;;;;;;;;;;;;;14.19;100.00;103169.41;4975455;28;20319;-72
2022/03/23 09:27:34;;;;;;;;;;;;;;;14.54;100.00;103163.34;4974077;28;19918;-72
2022/03/23 09:30:00;;;;;;;;;;;;;;;14.88;100.00;103167.88;4975221;28;20331;-72
2022/03/23 09:32:25;;;;;;;;;;;;;;;14.76;100.00;103165.50;4976003;28;19969;-72
2022/03/23 09:34:51;;;;;;;;;;;;;;;15.21;100.00;103169.75;4975941;28;19922;-72
2022/03/23 09:40:08;;;;;;;;;;;;;;;15.79;100.00;103158.41;4977027;28;19976;-72
2022/03/23 09:42:33;;;;;;;;;;;;;;;16.26;100.00;103165.09;4993373;28;19918;-73
2022/03/23 09:44:59;;;;;;;;;;;;;;;16.43;100.00;103166.38;4983989;28;19928;-73
2022/03/23 09:47:24;;;;;;;;;;;;;;;16.97;100.00;103165.59;4994032;28;20359;-73
2022/03/23 09:49:50;;;;;;;;;;;;;;;16.90;100.00;103167.59;4994419;28;20338;-72
2022/03/23 09:52:15;;;;;;;;;;;;;;;16.81;100.00;103181.31;4994224;28;20271;-73
2022/03/23 09:54:42;;;;;;;;;;;;;;;17.15;100.00;103181.09;4989840;28;19924;-73
2022/03/23 09:57:07;;;;;;;;;;;;;;;18.03;100.00;103186.06;4982229;28;20390;-73
2022/03/23 09:59:33;;;;;;;;;;;;;;;17.80;100.00;103193.19;4995943;28;19921;-72
2022/03/23 10:02:01;;;;;;;;;;;;;;;17.62;100.00;103181.28;4984528;28;20023;-72
2022/03/23 10:04:45;;;;;;;;;;;;;;;18.01;100.00;103181.69;4985315;28;20261;-72
2022/03/23 10:07:10;;;;;;;;;;;;;;;18.40;100.00;103177.53;4986931;28;20368;-73
2022/03/23 10:09:51;;;;;;;;;;;;;;;18.41;100.00;103181.06;4994187;28;20065;-73
2022/03/23 10:12:36;;;;;;;;;;;;;;;18.62;100.00;103183.84;4973748;28;19918;-72
2022/03/23 10:15:24;;;;;;;;;;;;;;;18.71;100.00;103190.66;4989458;28;20351;-73
2022/03/23 10:18:18;;;;;;;;;;;;;;;18.95;100.00;103185.19;4974825;28;19953;-73
2022/03/23 10:20:43;;;;;;;;;;;;;;;19.39;100.00;103188.75;4994575;28;19918;-73
2022/03/23 10:23:09;;;;;;;;;;;;;;;20.24;100.00;103189.47;5009405;28;19922;-73
2022/03/23 10:25:35;;;;;;;;;;;;;;;20.60;100.00;103179.66;4994079;28;19918;-73
2022/03/23 10:28:01;;;;;;;;;;;;;;;21.27;100.00;103183.53;4992577;28;19922;-73
2022/03/23 10:30:36;;;;;;;;;;;;;;;21.18;100.00;103186.69;4992767;28;19925;-73
2022/03/23 10:33:02;;;;;;;;;;;;;;;21.10;100.00;103186.22;4994011;28;20453;-73
2022/03/23 10:35:35;;;;;;;;;;;;;;;20.91;100.00;103187.16;4992559;28;19961;-73
2022/03/23 10:38:09;;;;;;;;;;;;;;;22.09;100.00;103192.81;4993944;28;20005;-73
2022/03/23 10:40:34;;;;;;;;;;;;;;;21.47;100.00;103184.34;4993710;28;20299;-75
2022/03/23 10:42:59;;;;;;;;;;;;;;;21.47;100.00;103184.34;4993907;28;19921;-75
2022/03/23 10:45:24;;;;;;;;;;;;;;;21.81;100.00;103185.25;4993952;28;20410;-75
2022/03/23 10:47:50;;;;;;;;;;;;;;;22.38;100.00;103192.09;4992557;28;19918;-73
2022/03/23 10:50:19;;;;;;;;;;;;;;;22.71;100.00;103182.13;4993692;28;19917;-73
2022/03/23 10:52:55;;;;;;;;;;;;;;;23.18;100.00;103190.25;4992153;28;19929;-73
2022/03/23 10:55:21;;;;;;;;;;;;;;;23.34;100.00;103174.84;4993804;28;19922;-73
2022/03/23 10:57:58;;;;;;;;;;;;;;;22.95;100.00;103174.41;4993210;28;19972;-73
2022/03/23 11:00:27;;;;;;;;;;;;;;;23.98;100.00;103184.44;4997866;28;19918;-73
2022/03/23 11:02:52;;;;;;;;;;;;;;;24.46;100.00;103183.22;4996571;28;19917;-75
2022/03/23 11:05:36;;;;;;;;;;;;;;;24.63;100.00;103179.41;4998307;28;19978;-75
2022/03/23 11:08:09;;;;;;;;;;;;;;;25.20;100.00;103189.19;4996237;28;20017;-73
2022/03/23 11:16:11;;;;;;;;;;;;;;;25.61;100.00;103190.00;4997852;28;19924;-75
2022/03/23 11:18:36;;;;;;;;;;;;;;;26.56;100.00;103183.19;4996493;28;19955;-75
2022/03/23 11:21:02;;;;;;;;;;;;;;;26.60;100.00;103193.75;4996495;28;19918;-75
2022/03/23 11:23:28;;;;;;;;;;;;;;;25.17;100.00;103200.28;4997984;28;20465;-75
2022/03/23 11:26:01;;;;;;;;;;;;;;;25.00;100.00;103185.09;4998217;28;19925;-75
2022/03/23 11:28:28;;;;;;;;;;;;;;;25.95;100.00;103191.28;4996367;28;19953;-73
2022/03/23 11:30:54;;;;;;;;;;;;;;;26.50;100.00;103189.97;4995878;28;19985;-75
2022/03/23 11:33:21;;;;;;;;;;;;;;;27.68;100.00;103192.84;4995885;28;20004;-74
2022/03/23 11:35:50;;;;;;;;;;;;;;;27.87;93.12;103198.59;4998402;28;19973;-75
2022/03/23 11:38:17;;;;;;;;;;;;;;;27.97;100.00;103187.88;4995973;28;19925;-73
2022/03/23 11:40:44;;;;;;;;;;;;;;;28.48;99.83;103180.97;4990601;28;19918;-73
2022/03/23 11:43:10;;;;;;;;;;;;;;;30.25;79.10;103199.53;4986935;28;19928;-72
2022/03/23 11:45:37;;;;;;;;;;;;;;;29.56;66.50;103198.28;4982615;28;20387;-72
2022/03/23 11:48:09;;;;;;;;;;;;;;;27.97;83.42;103185.13;4985229;28;20303;-72
2022/03/23 11:50:55;;;;;;;;;;;;;;;28.92;76.88;103182.75;4995367;28;20299;-74
2022/03/23 11:53:34;;;;;;;;;;;;;;;28.58;78.07;103181.09;4996671;28;19930;-77
2022/03/23 11:56:01;;;;;;;;;;;;;;;29.34;78.03;103177.31;4989502;28;19932;-73
2022/03/23 11:58:34;;;;;;;;;;;;;;;30.80;66.48;103180.75;4996450;28;20291;-72
2022/03/23 12:01:10;;;;;;;;;;;;;;;29.35;77.55;103175.47;4993516;28;19926;-73
2022/03/23 12:03:41;;;;;;;;;;;;;;;30.12;77.01;103185.13;4993279;28;20398;-73
2022/03/23 12:06:11;;;;;;;;;;;;;;;30.84;70.50;103170.38;4987291;28;19926;-75
2022/03/23 12:08:57;;;;;;;;;;;;;;;30.29;72.14;103170.84;4982637;28;19924;-74
2022/03/23 12:11:37;;;;;;;;;;;;;;;30.14;67.60;103173.03;4991873;28;20603;-73
2022/03/23 12:14:03;;;;;;;;;;;;;;;31.23;68.82;103166.66;4994781;28;19925;-73
2022/03/23 12:16:47;;;;;;;;;;;;;;;31.62;63.81;103162.94;4985235;28;19930;-70
2022/03/23 12:19:16;;;;;;;;;;;;;;;32.28;53.58;103170.19;5000638;28;20382;-71
2022/03/23 12:21:53;;;;;;;;;;;;;;;31.08;57.56;103166.22;4999519;28;20279;-70
2022/03/23 12:24:28;;;;;;;;;;;;;;;32.30;55.89;103165.41;5002027;28;19917;-71
2022/03/23 12:26:56;;;;;;;;;;;;;;;31.46;58.03;103159.00;4998992;28;20379;-70
2022/03/23 12:29:29;;;;;;;;;;;;;;;31.81;51.61;103162.03;5000864;28;19952;-71
2022/03/23 12:32:03;;;;;;;;;;;;;;;31.36;60.36;103150.78;4996478;28;19944;-70
2022/03/23 12:34:28;;;;;;;;;;;;;;;32.31;53.81;103153.38;5007014;28;19961;-71
2022/03/23 12:36:57;;;;;;;;;;;;;;;32.40;54.99;103148.88;4986124;28;20404;-70
2022/03/23 12:39:27;;;;;;;;;;;;;;;32.31;48.21;103147.00;4985350;28;19922;-70
2022/03/23 12:41:52;;;;;;;;;;;;;;;32.41;43.63;103154.25;4985682;28;19918;-70
2022/03/23 12:44:27;;;;;;;;;;;;;;;30.52;49.94;103142.22;4982694;28;19918;-70
2022/03/23 12:46:52;;;;;;;;;;;;;;;31.16;56.03;103141.66;5002332;28;19929;-70
2022/03/23 12:57:49;;;;;;;;;;;;;;;32.21;56.99;103125.03;5001634;28;19925;-70
2022/03/23 13:00:26;;;;;;;;;;;;;;;31.47;58.31;103120.41;4989801;28;19942;-70
2022/03/23 13:03:13;;;;;;;;;;;;;;;32.62;52.43;103121.81;4981417;28;19926;-71
2022/03/23 13:05:58;;;;;;;;;;;;;;;31.27;54.75;103129.66;4982573;28;20005;-71
2022/03/23 13:08:27;;;;;;;;;;;;;;;32.63;49.70;103123.56;4992982;28;19918;-70
2022/03/23 13:10:58;;;;;;;;;;;;;;;33.22;50.86;103124.91;5000198;28;19918;-71
2022/03/23 13:13:24;;;;;;;;;;;;;;;32.50;52.91;103117.53;4986579;28;19929;-70
2022/03/23 13:15:50;;;;;;;;;;;;;;;32.83;47.17;103123.41;4983907;28;19918;-71
2022/03/23 13:18:26;;;;;;;;;;;;;;;32.79;49.57;103113.75;4991907;28;19925;-71
2022/03/23 13:20:52;;;;;;;;;;;;;;;34.86;43.11;103119.06;5014884;28;19922;-72
2022/03/23 13:23:19;;;;;;;;;;;;;;;32.91;43.94;103115.28;5005967;28;19917;-73
2022/03/23 13:25:45;;;;;;;;;;;;;;;32.39;53.11;103108.63;5004618;28;19949;-71
2022/03/23 13:28:12;;;;;;;;;;;;;;;33.03;49.89;103112.13;5006651;28;19976;-71